Saint Johns, Ohio
Current Conditions -  °F | °C
As of 7:53 PM on Monday 26 Jan 2015 (Local Time) from KAOH Reporting Station
Clear Clear  
Wind Chill:   Ceiling: Unl
Heat Index:   Visibility: 8mi
Dew Point:   Wind: 3mph
Humidity: 84%   Direction: 130°SE
Pressure: 29.92"   Gusts: NA
Location:  40.56°N, 84.08°W
Report Text: KAOH 270053Z AUTO 13003KT 8SM CLR M13/M15 A2992 RMK AO2 SLP150 T11281150
Loading
Personal Weather Stations






























Interactive Weather Map New forecast layout! Learn more

10-Day Weather Forecast

Advertisements
Track Severe Weather on mobile